Time;durP1;ratioP1;P1;durP2;ratioP2;P2;SDS_P1;SDS_P2;PMS_P1;PMS_P2;Temp;Humidity;BMP_temperature;BMP_pressure;BME280_temperature;BME280_humidity;BME280_pressure;Samples;Min_cycle;Max_cycle;Signal;HPM_P1;HPM_P2
2021/10/14 00:01:38;;;;;;;3.30;2.20;;;;;;;10.46;69.27;101588.19;5016536;28;20042;-43
2021/10/14 00:04:03;;;;;;;2.90;2.28;;;;;;;10.45;69.35;101582.03;5011570;28;20028;-41
2021/10/14 00:06:28;;;;;;;3.25;2.40;;;;;;;10.47;69.45;101582.06;5017684;28;20104;-43
2021/10/14 00:08:54;;;;;;;3.03;2.40;;;;;;;10.46;69.26;101588.19;5016171;28;20033;-41
2021/10/14 00:11:19;;;;;;;2.72;2.33;;;;;;;10.47;69.54;101582.06;5010532;28;20399;-42
2021/10/14 00:13:44;;;;;;;2.25;2.03;;;;;;;10.46;69.36;101582.91;5019388;28;20024;-41
2021/10/14 00:16:11;;;;;;;2.30;2.10;;;;;;;10.46;69.48;101577.63;5012901;28;20088;-42
2021/10/14 00:18:37;;;;;;;2.30;2.10;;;;;;;10.45;69.21;101575.88;5014156;28;20033;-42
2021/10/14 00:21:02;;;;;;;3.15;2.42;;;;;;;10.47;69.19;101582.06;5013183;28;20040;-42
2021/10/14 00:23:27;;;;;;;2.58;2.17;;;;;;;10.45;69.44;101579.41;5012802;28;20109;-43
2021/10/14 00:25:53;;;;;;;2.30;2.10;;;;;;;10.45;69.52;101575.88;5016521;28;20053;-43
2021/10/14 00:28:18;;;;;;;2.00;1.85;;;;;;;10.47;68.95;101582.06;5010505;28;20029;-42
2021/10/14 00:30:43;;;;;;;1.95;1.80;;;;;;;10.45;69.20;101566.22;5016858;28;20773;-43
2021/10/14 00:33:09;;;;;;;2.30;2.10;;;;;;;10.47;69.22;101568.88;5016890;28;20416;-42
2021/10/14 00:35:34;;;;;;;2.10;1.90;;;;;;;10.45;69.18;101563.56;5014612;28;20030;-42
2021/10/14 00:37:59;;;;;;;2.25;2.05;;;;;;;10.47;69.58;101566.22;5013385;28;20057;-42
2021/10/14 00:40:24;;;;;;;2.05;1.88;;;;;;;10.46;69.46;101561.81;5016195;28;20022;-42
2021/10/14 00:42:52;;;;;;;2.08;1.88;;;;;;;10.45;69.23;101563.56;5012132;28;20499;-43
2021/10/14 00:45:17;;;;;;;3.17;2.30;;;;;;;10.46;69.27;101561.81;5008064;28;20026;-45
2021/10/14 00:47:42;;;;;;;2.53;2.33;;;;;;;10.46;69.22;101551.25;5013593;28;20040;-42
2021/10/14 00:50:08;;;;;;;3.78;2.17;;;;;;;10.45;69.20;101549.50;5014413;28;20026;-43
2021/10/14 00:52:35;;;;;;;2.30;2.10;;;;;;;10.45;69.27;101546.84;5017218;28;20044;-42
2021/10/14 00:55:01;;;;;;;2.15;1.95;;;;;;;10.46;69.48;101543.34;5043029;28;20038;-44
2021/10/14 00:57:28;;;;;;;2.50;2.30;;;;;;;10.47;69.60;101545.13;5012038;28;20041;-43
2021/10/14 00:59:54;;;;;;;2.50;2.30;;;;;;;10.45;69.47;101539.84;5012732;28;20018;-42
2021/10/14 01:02:19;;;;;;;2.97;2.40;;;;;;;10.45;69.52;101534.56;5012897;28;20506;-42
2021/10/14 01:04:44;;;;;;;2.53;2.30;;;;;;;10.47;69.62;101542.50;5013110;28;20033;-42
2021/10/14 01:07:10;;;;;;;2.63;2.42;;;;;;;10.44;69.49;101526.59;5016830;28;20033;-43
2021/10/14 01:09:35;;;;;;;2.70;2.40;;;;;;;10.46;69.51;101532.78;5013354;28;20025;-42
2021/10/14 01:12:03;;;;;;;2.78;2.50;;;;;;;10.44;69.55;101526.59;5014639;28;20034;-42
2021/10/14 01:14:28;;;;;;;3.00;2.60;;;;;;;10.45;69.61;101531.94;5013016;28;20091;-41
2021/10/14 01:16:53;;;;;;;3.10;2.80;;;;;;;10.45;69.38;101524.00;5013357;28;20393;-43
2021/10/14 01:19:19;;;;;;;3.55;2.42;;;;;;;10.45;69.46;101523.13;5012725;28;20084;-42
2021/10/14 01:21:44;;;;;;;2.60;2.40;;;;;;;10.45;69.66;101524.00;5017378;28;20452;-42
2021/10/14 01:24:10;;;;;;;3.03;2.55;;;;;;;10.47;69.60;101526.66;5011667;28;20068;-42
2021/10/14 01:26:38;;;;;;;3.10;2.67;;;;;;;10.46;69.36;101527.50;5012090;28;20034;-42
2021/10/14 01:29:04;;;;;;;3.65;2.83;;;;;;;10.46;69.41;101522.25;5011952;28;20534;-44
2021/10/14 01:31:29;;;;;;;4.13;2.80;;;;;;;10.48;69.70;101528.41;5011953;28;20034;-42
2021/10/14 01:33:55;;;;;;;3.10;2.90;;;;;;;10.46;69.36;101527.50;5011160;28;20026;-43
2021/10/14 01:36:21;;;;;;;3.35;3.05;;;;;;;10.46;69.48;101528.41;5008940;28;20399;-42
2021/10/14 01:38:46;;;;;;;3.25;2.40;;;;;;;10.47;69.36;101531.94;5013854;28;20026;-44
2021/10/14 01:41:11;;;;;;;3.80;3.00;;;;;;;10.46;69.50;101519.59;5011297;28;20077;-42
2021/10/14 01:43:37;;;;;;;4.00;2.67;;;;;;;10.47;69.46;101527.53;5012251;28;20071;-43
2021/10/14 01:46:02;;;;;;;3.25;2.80;;;;;;;10.47;69.47;101524.88;5009389;28;20439;-42
2021/10/14 01:48:28;;;;;;;3.72;2.92;;;;;;;10.45;69.59;101524.00;5014565;28;20076;-42
2021/10/14 01:50:54;;;;;;;2.67;2.47;;;;;;;10.47;69.70;101521.38;5014742;28;20022;-42
2021/10/14 01:53:19;;;;;;;4.00;2.92;;;;;;;10.46;69.52;101509.06;5011726;28;20026;-43
2021/10/14 01:55:45;;;;;;;3.85;3.20;;;;;;;10.45;69.55;101505.56;5008541;28;20032;-42
2021/10/14 01:58:10;;;;;;;4.30;3.13;;;;;;;10.46;69.83;101503.78;5012876;28;20099;-42
2021/10/14 02:00:35;;;;;;;3.20;2.90;;;;;;;10.45;69.78;101502.91;5016179;28;20044;-42
2021/10/14 02:03:01;;;;;;;3.20;3.00;;;;;;;10.47;69.48;101505.56;5008490;28;20033;-43
2021/10/14 02:05:26;;;;;;;3.58;3.00;;;;;;;10.47;69.70;101506.44;5013651;28;20037;-42
2021/10/14 02:07:51;;;;;;;3.45;2.90;;;;;;;10.47;69.83;101502.94;5013920;28;20021;-43
2021/10/14 02:10:16;;;;;;;3.15;2.88;;;;;;;10.45;69.83;101502.91;5009521;28;20045;-42
2021/10/14 02:12:42;;;;;;;3.67;2.72;;;;;;;10.46;69.80;101493.22;5015389;28;20017;-44
2021/10/14 02:15:07;;;;;;;4.10;3.08;;;;;;;10.47;69.71;101505.56;5013554;28;20084;-42
2021/10/14 02:17:33;;;;;;;3.28;2.97;;;;;;;10.47;69.61;101500.28;5013578;28;20017;-42
2021/10/14 02:19:58;;;;;;;3.85;3.30;;;;;;;10.46;69.55;101499.41;5013772;28;20018;-42
2021/10/14 02:22:23;;;;;;;4.50;3.28;;;;;;;10.47;69.87;101500.28;5007716;28;20028;-41
2021/10/14 02:24:48;;;;;;;3.67;3.00;;;;;;;10.48;69.90;101496.78;5012922;28;20034;-43
2021/10/14 02:27:14;;;;;;;3.03;2.65;;;;;;;10.45;69.96;101491.47;5013615;28;20026;-43
2021/10/14 02:29:39;;;;;;;3.58;2.90;;;;;;;10.46;69.70;101487.94;5040899;28;20502;-42
2021/10/14 02:32:04;;;;;;;4.22;3.08;;;;;;;10.46;69.69;101486.22;5007917;28;20040;-43
2021/10/14 02:34:30;;;;;;;3.30;2.55;;;;;;;10.45;69.69;101471.28;5011983;28;20025;-44
2021/10/14 02:36:55;;;;;;;3.72;2.88;;;;;;;10.47;69.67;101476.56;5021350;28;20109;-41
2021/10/14 02:39:20;;;;;;;3.10;2.80;;;;;;;10.46;69.82;101477.41;5011124;28;20025;-41
2021/10/14 02:41:46;;;;;;;2.78;2.58;;;;;;;10.45;69.89;101467.75;5008017;28;20034;-42
2021/10/14 02:44:11;;;;;;;3.25;2.65;;;;;;;10.47;69.73;101474.78;5007218;28;20384;-43
2021/10/14 02:46:36;;;;;;;3.92;2.97;;;;;;;10.47;69.82;101464.22;5015340;28;20184;-42
2021/10/14 02:49:02;;;;;;;3.92;3.05;;;;;;;10.48;69.75;101462.47;5007081;28;20108;-43
2021/10/14 02:51:27;;;;;;;3.50;2.92;;;;;;;10.46;70.05;101458.94;5008699;28;20033;-42
2021/10/14 02:53:52;;;;;;;3.67;3.20;;;;;;;10.48;70.03;101462.47;5011726;28;20108;-42
2021/10/14 02:56:17;;;;;;;4.53;3.15;;;;;;;10.47;70.08;101464.22;5013248;28;20032;-42
2021/10/14 02:58:43;;;;;;;3.28;2.97;;;;;;;10.47;69.92;101452.81;5009732;28;20392;-43
2021/10/14 03:01:08;;;;;;;3.33;2.83;;;;;;;10.46;69.92;101458.94;5035601;28;20042;-42
2021/10/14 03:03:34;;;;;;;2.97;2.78;;;;;;;10.46;69.95;101445.75;5038077;28;20075;-43
2021/10/14 03:05:59;;;;;;;3.58;2.50;;;;;;;10.47;69.73;101443.13;5010033;28;20064;-42
2021/10/14 03:08:24;;;;;;;3.10;2.80;;;;;;;10.47;69.87;101444.91;5009901;28;20029;-42
2021/10/14 03:10:50;;;;;;;5.35;2.65;;;;;;;10.47;69.75;101440.50;5004753;28;20103;-43
2021/10/14 03:13:15;;;;;;;2.75;2.55;;;;;;;10.47;70.11;101442.25;5010518;28;20836;-42
2021/10/14 03:15:40;;;;;;;3.10;2.80;;;;;;;10.45;69.99;101444.91;5012551;28;20032;-42
2021/10/14 03:18:06;;;;;;;3.90;3.15;;;;;;;10.47;70.06;101437.00;5009575;28;20040;-42
2021/10/14 03:20:31;;;;;;;2.70;2.50;;;;;;;10.48;70.16;101438.75;5009630;28;20144;-44
2021/10/14 03:22:56;;;;;;;3.17;2.55;;;;;;;10.46;69.87;101435.22;5012437;28;20069;-41
2021/10/14 03:25:22;;;;;;;3.72;2.83;;;;;;;10.47;69.95;101437.00;5012487;28;20102;-41
2021/10/14 03:27:47;;;;;;;2.72;2.42;;;;;;;10.46;69.91;101432.56;5007062;28;20446;-42
2021/10/14 03:30:12;;;;;;;2.53;2.33;;;;;;;10.45;70.08;101431.72;5010023;28;20034;-41
2021/10/14 03:32:38;;;;;;;2.63;2.42;;;;;;;10.47;70.02;101431.72;5012534;28;20471;-41
2021/10/14 03:35:03;;;;;;;2.45;2.25;;;;;;;10.44;70.05;101424.63;5007708;28;20036;-42
2021/10/14 03:37:28;;;;;;;2.63;2.28;;;;;;;10.47;70.04;101429.09;5012227;28;20041;-42
2021/10/14 03:39:54;;;;;;;2.67;2.47;;;;;;;10.47;69.82;101429.94;5005289;28;20364;-43
2021/10/14 03:42:21;;;;;;;3.35;2.60;;;;;;;10.47;69.87;101426.44;5007324;28;20033;-42
2021/10/14 03:44:46;;;;;;;2.42;2.22;;;;;;;10.47;69.96;101423.81;5007166;28;20033;-43
2021/10/14 03:47:11;;;;;;;2.47;2.28;;;;;;;10.46;69.71;101414.09;5010013;28;20033;-43
2021/10/14 03:49:37;;;;;;;2.78;2.58;;;;;;;10.47;70.07;101426.44;5009788;28;20473;-42
2021/10/14 03:52:02;;;;;;;2.60;2.38;;;;;;;10.48;69.82;101422.91;5001679;28;20033;-42
2021/10/14 03:54:28;;;;;;;2.50;2.30;;;;;;;10.47;70.03;101429.94;5011976;28;20026;-44
2021/10/14 03:56:53;;;;;;;2.55;2.35;;;;;;;10.47;69.97;101429.09;5011044;28;20049;-42
2021/10/14 03:59:19;;;;;;;2.90;2.63;;;;;;;10.47;70.01;101427.31;5010029;28;20026;-42
2021/10/14 04:01:44;;;;;;;3.63;2.28;;;;;;;10.46;69.97;101424.66;5007527;28;20022;-43
2021/10/14 04:04:09;;;;;;;2.20;2.00;;;;;;;10.47;70.43;101418.53;5010449;28;20105;-42
2021/10/14 04:06:34;;;;;;;2.80;2.50;;;;;;;10.47;70.13;101421.16;5011440;28;20472;-42
2021/10/14 04:09:00;;;;;;;2.60;2.20;;;;;;;10.47;69.87;101421.16;5007866;28;20061;-42
2021/10/14 04:11:25;;;;;;;3.08;2.42;;;;;;;10.47;69.88;101422.03;5010909;28;20029;-44
2021/10/14 04:13:50;;;;;;;2.15;1.92;;;;;;;10.47;70.12;101423.81;5005775;28;20042;-43
2021/10/14 04:16:16;;;;;;;3.20;2.53;;;;;;;10.47;70.09;101422.03;5007617;28;20612;-46
2021/10/14 04:18:41;;;;;;;3.15;2.55;;;;;;;10.46;70.25;101419.38;5013223;28;20014;-45
2021/10/14 04:21:06;;;;;;;2.40;2.20;;;;;;;10.45;70.05;101415.00;5009286;28;20084;-42
2021/10/14 04:23:32;;;;;;;2.55;2.35;;;;;;;10.47;70.16;101413.25;5032992;28;20029;-41
2021/10/14 04:25:57;;;;;;;2.50;2.20;;;;;;;10.47;70.03;101418.53;5005549;28;20032;-43
2021/10/14 04:28:22;;;;;;;3.58;2.88;;;;;;;10.48;70.30;101428.19;5038218;28;20411;-42
2021/10/14 04:30:48;;;;;;;3.42;3.10;;;;;;;10.47;70.30;101415.91;5011205;28;20029;-42
2021/10/14 04:33:13;;;;;;;2.67;2.47;;;;;;;10.45;70.35;101420.25;5002223;28;20038;-42
2021/10/14 04:35:39;;;;;;;3.10;2.80;;;;;;;10.46;70.22;101416.75;5010668;28;20129;-43
2021/10/14 04:38:04;;;;;;;4.65;3.30;;;;;;;10.47;70.21;101416.75;5012222;28;20040;-42
2021/10/14 04:40:29;;;;;;;3.55;2.92;;;;;;;10.47;70.16;101415.91;5012266;28;20050;-43
2021/10/14 04:42:54;;;;;;;3.42;3.13;;;;;;;10.47;70.39;101424.66;5012484;28;20033;-41
2021/10/14 04:45:20;;;;;;;3.10;2.80;;;;;;;10.48;70.49;101417.66;5008634;28;20045;-43
2021/10/14 04:47:45;;;;;;;3.45;3.15;;;;;;;10.47;70.23;101416.75;5014242;28;20026;-42
2021/10/14 04:50:11;;;;;;;3.70;3.03;;;;;;;10.46;70.35;101406.19;5014564;28;20518;-43
2021/10/14 04:52:38;;;;;;;3.50;3.20;;;;;;;10.46;70.34;101406.19;5016680;28;20045;-44
2021/10/14 04:55:04;;;;;;;3.28;2.97;;;;;;;10.47;70.25;101407.97;5011489;28;20021;-43
2021/10/14 04:57:29;;;;;;;3.65;3.35;;;;;;;10.46;70.39;101398.28;4996143;28;20029;-42
2021/10/14 04:59:55;;;;;;;3.45;3.15;;;;;;;10.45;70.60;101397.44;5009644;28;20029;-42
2021/10/14 05:02:20;;;;;;;3.67;3.30;;;;;;;10.46;70.45;101398.28;5014704;28;20125;-42
2021/10/14 05:04:45;;;;;;;3.63;2.92;;;;;;;10.47;70.64;101400.06;5010471;28;20026;-42
2021/10/14 05:07:10;;;;;;;3.67;3.38;;;;;;;10.47;70.36;101402.72;5007775;28;20040;-44
2021/10/14 05:09:36;;;;;;;3.00;2.80;;;;;;;10.45;70.64;101385.97;5010688;28;20052;-42
2021/10/14 05:12:01;;;;;;;3.60;3.30;;;;;;;10.47;70.43;101389.53;5010667;28;20025;-42
2021/10/14 05:14:27;;;;;;;3.50;3.20;;;;;;;10.47;70.20;101395.66;5008854;28;20109;-41
2021/10/14 05:16:52;;;;;;;3.72;3.42;;;;;;;10.48;70.55;101399.19;5009176;28;20113;-43
2021/10/14 05:19:17;;;;;;;3.40;3.10;;;;;;;10.47;70.25;101389.53;5017530;28;20032;-42
2021/10/14 05:21:43;;;;;;;3.95;3.55;;;;;;;10.44;70.29;101400.88;5013083;28;20546;-42
2021/10/14 05:24:08;;;;;;;2.60;2.40;;;;;;;10.47;70.61;101406.22;5033912;28;20031;-41
2021/10/14 05:26:34;;;;;;;3.50;3.20;;;;;;;10.44;70.58;101395.59;5013947;28;20052;-42
2021/10/14 05:28:59;;;;;;;3.47;3.17;;;;;;;10.46;70.64;101398.28;5013398;28;20088;-42
2021/10/14 05:31:26;;;;;;;3.83;3.42;;;;;;;10.47;70.26;101405.34;5014283;28;20057;-42
2021/10/14 05:33:54;;;;;;;3.28;2.95;;;;;;;10.47;70.60;101406.22;5009371;28;20025;-43
2021/10/14 05:36:19;;;;;;;3.72;3.40;;;;;;;10.47;70.52;101411.47;5016111;28;20050;-42
2021/10/14 05:38:44;;;;;;;4.07;3.65;;;;;;;10.47;70.21;101411.47;5011891;28;20045;-43
2021/10/14 05:41:10;;;;;;;3.42;3.13;;;;;;;10.47;70.54;101410.63;5012055;28;20060;-44
2021/10/14 05:43:35;;;;;;;3.53;3.30;;;;;;;10.46;70.42;101403.56;5014802;28;20029;-42
2021/10/14 05:46:00;;;;;;;3.85;3.55;;;;;;;10.45;70.58;101402.69;5008843;28;20025;-41
2021/10/14 05:48:26;;;;;;;3.15;2.85;;;;;;;10.45;70.63;101404.44;5006938;28;20380;-42
2021/10/14 05:50:51;;;;;;;3.60;3.30;;;;;;;10.47;70.66;101405.34;5009210;28;20033;-44
2021/10/14 05:53:16;;;;;;;4.53;3.38;;;;;;;10.45;70.60;101407.97;5012104;28;20022;-43
2021/10/14 05:55:42;;;;;;;3.15;2.83;;;;;;;10.45;70.28;101401.81;5012819;28;20037;-42
2021/10/14 05:58:07;;;;;;;3.55;3.25;;;;;;;10.46;70.41;101411.47;5014627;28;20045;-43
2021/10/14 06:00:32;;;;;;;3.33;3.03;;;;;;;10.47;70.59;101410.63;5015361;28;20387;-42
2021/10/14 06:02:57;;;;;;;3.97;3.58;;;;;;;10.47;70.26;101407.97;5014882;28;20034;-42
2021/10/14 06:05:23;;;;;;;3.45;3.13;;;;;;;10.45;70.39;101413.25;5013419;28;20036;-42
2021/10/14 06:07:49;;;;;;;3.15;2.85;;;;;;;10.47;70.54;101421.16;5016389;28;20029;-47
2021/10/14 06:10:14;;;;;;;3.85;3.55;;;;;;;10.46;70.45;101415.00;5011290;28;20037;-42
2021/10/14 06:12:40;;;;;;;3.10;2.90;;;;;;;10.46;70.57;101419.38;5025207;28;20030;-42
2021/10/14 06:15:06;;;;;;;3.85;3.55;;;;;;;10.46;70.33;101416.75;5012436;28;20029;-42
2021/10/14 06:17:31;;;;;;;3.42;3.13;;;;;;;10.45;70.40;101423.78;5008482;28;20396;-42
2021/10/14 06:19:57;;;;;;;3.13;2.88;;;;;;;10.45;70.55;101418.53;5013655;28;20018;-42
2021/10/14 06:22:22;;;;;;;3.75;3.45;;;;;;;10.47;70.35;101413.25;5014159;28;20060;-42
2021/10/14 06:24:47;;;;;;;3.08;2.88;;;;;;;10.45;70.44;101410.63;5012849;28;20033;-41
2021/10/14 06:27:13;;;;;;;3.15;2.88;;;;;;;10.45;70.47;101407.09;5010692;28;20026;-42
2021/10/14 06:29:38;;;;;;;3.42;3.13;;;;;;;10.47;70.49;101415.91;5040605;28;20037;-43
2021/10/14 06:32:04;;;;;;;2.92;2.72;;;;;;;10.47;70.41;101421.16;5011547;28;20037;-41
2021/10/14 06:34:29;;;;;;;2.78;2.58;;;;;;;10.45;70.52;101412.34;5008519;28;20034;-42
2021/10/14 06:36:54;;;;;;;3.13;2.88;;;;;;;10.47;70.25;101421.16;5009128;28;20023;-43
2021/10/14 06:39:19;;;;;;;3.15;2.85;;;;;;;10.47;70.35;101421.16;5010872;28;20041;-45
2021/10/14 06:41:45;;;;;;;3.10;2.90;;;;;;;10.44;70.60;101421.13;5010166;28;20700;-42
2021/10/14 06:44:11;;;;;;;3.17;2.90;;;;;;;10.45;70.46;101412.34;5034220;28;20076;-43
2021/10/14 06:46:37;;;;;;;3.60;3.30;;;;;;;10.45;70.30;101417.63;5012018;28;20033;-42
2021/10/14 06:49:03;;;;;;;4.18;2.97;;;;;;;10.46;70.55;101424.66;5008640;28;20093;-42
2021/10/14 06:51:28;;;;;;;3.65;3.35;;;;;;;10.45;70.60;101415.88;5013705;28;20117;-42
2021/10/14 06:53:53;;;;;;;3.60;3.30;;;;;;;10.46;70.30;101414.09;5009568;28;20036;-42
2021/10/14 06:56:19;;;;;;;4.53;3.38;;;;;;;10.46;70.35;101408.84;5013147;28;20026;-43
2021/10/14 06:58:44;;;;;;;4.03;3.30;;;;;;;10.46;70.27;101414.09;5011296;28;20140;-42
2021/10/14 07:01:09;;;;;;;3.40;3.10;;;;;;;10.46;70.69;101411.47;5013119;28;20037;-42
2021/10/14 07:03:34;;;;;;;3.38;3.10;;;;;;;10.46;70.68;101414.09;5011919;28;20057;-43
2021/10/14 07:06:00;;;;;;;3.30;3.10;;;;;;;10.45;70.64;101415.00;5014699;28;20034;-43
2021/10/14 07:08:25;;;;;;;3.25;3.05;;;;;;;10.45;70.36;101418.53;5008872;28;20100;-43
2021/10/14 07:10:51;;;;;;;3.00;2.80;;;;;;;10.45;70.55;101415.88;5012074;28;20022;-41
2021/10/14 07:13:16;;;;;;;3.25;3.05;;;;;;;10.45;70.58;101421.16;5012500;28;20026;-45
2021/10/14 07:15:41;;;;;;;3.33;3.03;;;;;;;10.45;70.44;101417.63;5006935;28;20034;-42
2021/10/14 07:18:08;;;;;;;3.45;3.15;;;;;;;10.44;70.58;101419.34;5008573;28;20030;-41
2021/10/14 07:20:34;;;;;;;3.40;3.20;;;;;;;10.45;70.68;101428.19;5011295;28;20046;-42
2021/10/14 07:22:59;;;;;;;3.40;3.20;;;;;;;10.45;70.52;101423.78;5003088;28;20052;-42
2021/10/14 07:25:25;;;;;;;3.80;3.50;;;;;;;10.45;70.68;101420.25;5001536;28;20124;-42
2021/10/14 07:27:50;;;;;;;3.80;3.50;;;;;;;10.44;70.64;101421.97;5009618;28;20109;-44
2021/10/14 07:30:15;;;;;;;4.15;3.75;;;;;;;10.44;70.34;101415.84;5001288;28;20053;-42
2021/10/14 07:32:41;;;;;;;3.70;3.40;;;;;;;10.45;70.48;101428.19;4991449;28;20041;-43
2021/10/14 07:35:06;;;;;;;3.72;3.42;;;;;;;10.45;70.34;101422.91;5004519;28;20030;-43
2021/10/14 07:37:32;;;;;;;3.47;3.17;;;;;;;10.45;70.38;101422.91;5007529;28;20045;-41
2021/10/14 07:39:58;;;;;;;3.90;3.60;;;;;;;10.44;70.88;101419.34;5003897;28;20053;-44
2021/10/14 07:42:23;;;;;;;3.60;3.30;;;;;;;10.45;70.53;101417.63;5009171;28;20038;-41
2021/10/14 07:44:49;;;;;;;3.40;3.10;;;;;;;10.46;70.31;101424.66;5003655;28;20033;-42
2021/10/14 07:47:15;;;;;;;3.67;3.38;;;;;;;10.44;70.57;101416.69;5005314;28;20409;-43
2021/10/14 07:49:40;;;;;;;4.13;3.33;;;;;;;10.45;70.45;101418.53;5037494;28;20014;-43
2021/10/14 07:52:05;;;;;;;3.90;3.60;;;;;;;10.44;70.64;101421.13;5008708;28;20034;-42
2021/10/14 07:54:30;;;;;;;3.67;3.38;;;;;;;10.46;70.64;101424.66;5002991;28;20487;-42
2021/10/14 07:56:56;;;;;;;3.92;3.63;;;;;;;10.45;70.41;101417.63;5008027;28;20479;-41
2021/10/14 07:59:21;;;;;;;4.13;3.83;;;;;;;10.46;70.86;101422.03;5006767;28;20125;-44
2021/10/14 08:01:46;;;;;;;4.20;3.90;;;;;;;10.47;70.71;101431.72;5009836;28;20080;-42
2021/10/14 08:04:12;;;;;;;3.92;3.63;;;;;;;10.45;70.99;101423.78;5005413;28;20482;-42
2021/10/14 08:06:38;;;;;;;4.28;3.88;;;;;;;10.46;70.79;101424.66;5008655;28;20029;-42
2021/10/14 08:09:03;;;;;;;4.30;3.95;;;;;;;10.45;70.98;101422.91;5007935;28;20049;-42
2021/10/14 08:11:29;;;;;;;4.00;3.70;;;;;;;10.45;70.66;101425.53;5010958;28;20048;-42
2021/10/14 08:13:54;;;;;;;3.97;3.70;;;;;;;10.45;70.80;101425.53;5007310;28;20024;-41
2021/10/14 08:16:20;;;;;;;4.50;4.20;;;;;;;10.45;70.93;101430.81;5007437;28;20029;-44
2021/10/14 08:18:45;;;;;;;4.18;3.88;;;;;;;10.47;70.81;101442.25;5009684;28;20030;-42
2021/10/14 08:21:10;;;;;;;3.90;3.60;;;;;;;10.47;71.11;101437.00;5012179;28;20149;-43
2021/10/14 08:23:36;;;;;;;4.68;4.28;;;;;;;10.46;70.91;101440.47;5013150;28;20073;-43
2021/10/14 08:26:01;;;;;;;4.60;4.30;;;;;;;10.46;71.36;101432.56;5012447;28;20029;-42
2021/10/14 08:28:27;;;;;;;3.92;3.63;;;;;;;10.47;71.03;101437.00;5043685;28;20033;-42
2021/10/14 08:30:52;;;;;;;4.22;3.92;;;;;;;10.48;71.21;101438.75;5015338;28;20498;-41
2021/10/14 08:33:17;;;;;;;4.40;4.07;;;;;;;10.47;71.17;101431.72;5015539;28;20099;-42
2021/10/14 08:35:43;;;;;;;5.13;3.95;;;;;;;10.45;71.44;101431.72;5009539;28;20030;-43
2021/10/14 08:38:10;;;;;;;4.30;4.00;;;;;;;10.47;71.27;101434.34;5012703;28;20022;-42
2021/10/14 08:40:35;;;;;;;4.60;4.20;;;;;;;10.47;71.48;101431.72;5023955;28;20041;-43
2021/10/14 08:43:05;;;;;;;4.78;4.32;;;;;;;10.47;71.32;101431.72;5012527;28;20026;-44
2021/10/14 08:45:35;;;;;;;4.90;4.50;;;;;;;10.48;71.58;101438.75;5014390;28;20129;-41
2021/10/14 08:48:04;;;;;;;5.13;4.63;;;;;;;10.47;71.28;101432.56;5013492;28;20505;-42
2021/10/14 08:50:32;;;;;;;4.63;4.22;;;;;;;10.48;71.52;101433.47;5013206;28;20396;-42
2021/10/14 08:52:57;;;;;;;4.90;4.50;;;;;;;10.46;71.22;101419.38;5016072;28;20052;-44
2021/10/14 08:55:23;;;;;;;4.90;4.40;;;;;;;10.48;71.34;101425.56;5018071;28;20483;-42
2021/10/14 08:57:48;;;;;;;4.80;4.40;;;;;;;10.48;71.66;101422.91;5014837;28;20038;-43
2021/10/14 09:00:13;;;;;;;5.53;5.03;;;;;;;10.47;71.33;101416.75;5013866;28;20100;-41
2021/10/14 09:02:41;;;;;;;5.25;4.85;;;;;;;10.48;71.25;101423.81;5013880;28;20022;-42
2021/10/14 09:05:09;;;;;;;4.70;4.30;;;;;;;10.48;71.79;101422.91;5016138;28;20486;-43
2021/10/14 09:07:34;;;;;;;4.90;4.60;;;;;;;10.48;71.68;101422.91;5000374;28;20080;-43
2021/10/14 09:10:10;;;;;;;5.43;4.93;;;;;;;10.48;71.76;101418.53;5014744;28;20014;-42
2021/10/14 09:12:38;;;;;;;5.00;4.60;;;;;;;10.49;71.65;101416.75;5016966;28;20639;-42
2021/10/14 09:15:13;;;;;;;5.25;4.78;;;;;;;10.50;71.96;101423.78;5014300;28;20794;-43
2021/10/14 09:17:38;;;;;;;5.10;4.70;;;;;;;10.49;71.90;101419.41;5013735;28;20496;-43
2021/10/14 09:20:25;;;;;;;5.15;4.65;;;;;;;10.50;71.73;101429.97;5016867;28;20103;-42
2021/10/14 09:22:56;;;;;;;5.22;4.82;;;;;;;10.49;71.72;101422.94;5013110;28;20026;-43
2021/10/14 09:25:47;;;;;;;4.97;4.57;;;;;;;10.49;71.72;101425.56;5011998;28;20028;-44
2021/10/14 09:28:12;;;;;;;5.85;5.35;;;;;;;10.50;71.64;101429.06;5013472;28;20034;-42
2021/10/14 09:31:05;;;;;;;5.37;4.97;;;;;;;10.49;71.27;101433.47;5013399;28;20075;-43
2021/10/14 09:33:47;;;;;;;5.05;4.65;;;;;;;10.50;71.77;101427.31;5013208;28;20281;-42
2021/10/14 09:36:23;;;;;;;5.35;4.90;;;;;;;10.50;71.77;101431.69;5013780;28;20038;-42
2021/10/14 09:38:51;;;;;;;5.32;4.82;;;;;;;10.50;71.85;101429.06;5010974;28;20121;-44
2021/10/14 09:41:19;;;;;;;5.32;4.93;;;;;;;10.50;71.76;101426.44;5016105;28;20030;-43
2021/10/14 09:43:47;;;;;;;5.40;4.90;;;;;;;10.50;72.05;101426.44;5014063;28;20032;-41
2021/10/14 09:46:32;;;;;;;5.38;4.97;;;;;;;10.51;71.81;101421.16;5013848;28;20025;-42
2021/10/14 09:48:57;;;;;;;6.22;5.63;;;;;;;10.51;71.70;101422.94;5012241;28;20029;-42
2021/10/14 09:51:22;;;;;;;6.13;5.43;;;;;;;10.51;71.71;101421.16;5014285;28;20442;-42
2021/10/14 09:53:48;;;;;;;5.57;5.07;;;;;;;10.51;71.75;101420.31;5014122;28;20061;-44
2021/10/14 09:56:13;;;;;;;6.13;5.63;;;;;;;10.52;71.81;101432.59;5013832;28;20499;-43
2021/10/14 09:58:38;;;;;;;6.35;5.50;;;;;;;10.50;72.13;101422.03;5011063;28;20392;-41
2021/10/14 10:01:04;;;;;;;6.72;6.13;;;;;;;10.52;72.03;101429.97;5027277;28;20017;-43
2021/10/14 10:03:31;;;;;;;6.35;5.80;;;;;;;10.51;72.25;101428.22;5016261;28;20022;-42
2021/10/14 10:05:57;;;;;;;6.88;6.25;;;;;;;10.52;71.83;101435.25;5015560;28;20053;-42
2021/10/14 10:08:29;;;;;;;6.20;5.70;;;;;;;10.53;72.17;101426.44;5042130;28;20035;-42
2021/10/14 10:10:57;;;;;;;6.55;5.95;;;;;;;10.53;71.90;101429.09;5012992;28;20451;-44
2021/10/14 10:13:23;;;;;;;6.20;5.70;;;;;;;10.53;72.25;101426.44;5009746;28;20025;-42
2021/10/14 10:15:49;;;;;;;7.43;6.72;;;;;;;10.53;72.29;101421.16;4989526;28;20020;-41
2021/10/14 10:18:26;;;;;;;7.63;6.93;;;;;;;10.54;72.16;101422.94;5008630;28;20037;-41
2021/10/14 10:20:52;;;;;;;8.30;6.28;;;;;;;10.54;71.96;101422.94;5009821;28;20041;-42
2021/10/14 10:23:42;;;;;;;7.80;7.00;;;;;;;10.55;71.96;101424.72;5007587;28;20769;-42
2021/10/14 10:26:35;;;;;;;8.50;7.70;;;;;;;10.55;72.11;101414.16;5010775;28;20036;-46
2021/10/14 10:29:14;;;;;;;7.25;6.63;;;;;;;10.56;72.44;101430.84;5008502;28;20132;-43
2021/10/14 10:31:48;;;;;;;7.30;6.60;;;;;;;10.55;71.96;101423.81;5013625;28;20510;-42
2021/10/14 10:35:13;;;;;;;7.97;7.18;;;;;;;10.56;72.06;101425.56;5010144;28;20030;-42
2021/10/14 10:39:55;;;;;;;8.20;7.50;;;;;;;10.56;72.28;101405.34;5013207;28;20026;-43
2021/10/14 10:42:24;;;;;;;8.10;7.40;;;;;;;10.56;72.12;101410.63;5009201;28;20038;-45
2021/10/14 10:44:50;;;;;;;7.78;6.97;;;;;;;10.56;72.26;101404.47;5006490;28;20671;-42
2021/10/14 10:47:46;;;;;;;8.30;7.50;;;;;;;10.56;72.10;101410.63;5005392;28;20041;-42
2021/10/14 10:50:18;;;;;;;7.93;7.20;;;;;;;10.57;72.62;101400.97;5011639;28;20023;-42
2021/10/14 10:52:46;;;;;;;7.97;7.18;;;;;;;10.58;72.49;101408.00;5012554;28;20506;-41
2021/10/14 10:55:20;;;;;;;7.95;7.15;;;;;;;10.57;72.22;101412.38;5036307;28;20045;-43
2021/10/14 10:57:53;;;;;;;8.82;8.02;;;;;;;10.58;72.42;101419.44;5008798;28;20030;-42
2021/10/14 11:00:20;;;;;;;8.48;7.68;;;;;;;10.59;72.55;101404.47;5009603;28;20115;-42
2021/10/14 11:02:46;;;;;;;8.57;7.78;;;;;;;10.58;72.56;101394.81;5008644;28;20026;-43
2021/10/14 11:05:12;;;;;;;7.45;6.68;;;;;;;10.59;72.42;101389.53;5012783;28;21134;-42
2021/10/14 11:07:38;;;;;;;8.82;7.97;;;;;;;10.59;72.60;101392.19;5007891;28;20032;-42
2021/10/14 11:10:04;;;;;;;7.53;6.82;;;;;;;10.60;72.59;101396.56;5013144;28;20018;-42
2021/10/14 11:12:29;;;;;;;8.82;7.78;;;;;;;10.59;72.84;101389.53;5011037;28;20041;-42
2021/10/14 11:14:55;;;;;;;8.65;7.75;;;;;;;10.61;72.77;101386.91;5012828;28;20053;-45
2021/10/14 11:17:24;;;;;;;8.57;7.78;;;;;;;10.61;72.89;101387.78;5008604;28;20037;-47
2021/10/14 11:20:03;;;;;;;8.82;7.95;;;;;;;10.62;72.55;101388.66;5005194;28;20026;-42
2021/10/14 11:22:28;;;;;;;7.72;7.03;;;;;;;10.62;72.69;101388.66;5009711;28;20026;-42
2021/10/14 11:24:55;;;;;;;8.48;7.60;;;;;;;10.62;72.84;101388.66;5009269;28;20037;-44